createdAt,value
2018-08-14T00:01:18.694Z,17.45
2018-08-14T00:03:46.008Z,17.52
2018-08-14T00:06:13.350Z,17.60
2018-08-14T00:08:40.672Z,17.66
2018-08-14T00:11:08.135Z,17.70
2018-08-14T00:13:35.477Z,17.68
2018-08-14T00:16:02.860Z,17.60
2018-08-14T00:18:30.138Z,17.63
2018-08-14T00:20:57.570Z,17.63
2018-08-14T00:23:24.935Z,17.63
2018-08-14T00:25:52.264Z,17.53
2018-08-14T00:28:19.650Z,17.48
2018-08-14T00:30:46.944Z,17.54
2018-08-14T00:33:14.198Z,17.64
2018-08-14T00:35:41.603Z,17.62
2018-08-14T00:38:08.992Z,17.58
2018-08-14T00:40:36.486Z,17.58
2018-08-14T00:43:05.479Z,17.55
2018-08-14T00:45:32.855Z,17.44
2018-08-14T00:48:00.316Z,17.56
2018-08-14T00:50:27.653Z,17.54
2018-08-14T00:52:54.986Z,17.49
2018-08-14T00:55:22.994Z,17.48
2018-08-14T00:57:50.706Z,17.49
2018-08-14T01:00:21.226Z,17.47
2018-08-14T01:02:49.356Z,17.47
2018-08-14T01:05:17.265Z,17.41
2018-08-14T01:07:44.834Z,17.39
2018-08-14T01:10:13.197Z,17.33
2018-08-14T01:12:46.575Z,17.24
2018-08-14T01:15:15.370Z,17.30
2018-08-14T01:17:43.186Z,17.29
2018-08-14T01:20:11.988Z,17.31
2018-08-14T01:22:39.236Z,17.34
2018-08-14T01:25:06.867Z,17.36
2018-08-14T01:27:34.198Z,17.39
2018-08-14T01:30:01.601Z,17.40
2018-08-14T01:32:28.933Z,17.42
2018-08-14T01:34:56.474Z,17.40
2018-08-14T01:37:23.763Z,17.42
2018-08-14T01:39:51.183Z,17.44
2018-08-14T01:42:18.514Z,17.44
2018-08-14T01:44:45.856Z,17.39
2018-08-14T01:47:13.153Z,17.33
2018-08-14T01:49:40.433Z,17.32
2018-08-14T01:52:07.763Z,17.36
2018-08-14T01:54:35.149Z,17.33
2018-08-14T01:57:02.530Z,17.37
2018-08-14T01:59:29.831Z,17.40
2018-08-14T02:01:57.128Z,17.33
2018-08-14T02:04:24.415Z,17.30
2018-08-14T02:06:51.744Z,17.23
2018-08-14T02:09:19.197Z,17.21
2018-08-14T02:11:46.533Z,17.18
2018-08-14T02:14:13.779Z,17.17
2018-08-14T02:16:41.150Z,17.20
2018-08-14T02:19:08.502Z,17.16
2018-08-14T02:21:35.918Z,17.13
2018-08-14T02:24:03.260Z,17.14
2018-08-14T02:26:30.521Z,17.08
2018-08-14T02:28:57.826Z,17.06
2018-08-14T02:31:25.223Z,17.03
2018-08-14T02:33:52.761Z,17.00
2018-08-14T02:36:20.063Z,16.93
2018-08-14T02:38:47.364Z,16.90
2018-08-14T02:41:14.699Z,16.71
2018-08-14T02:43:42.043Z,16.91
2018-08-14T02:46:09.292Z,16.89
2018-08-14T02:48:36.667Z,16.85
2018-08-14T02:51:03.986Z,16.85
2018-08-14T02:53:31.331Z,16.91
2018-08-14T02:55:58.734Z,16.90
2018-08-14T02:58:25.960Z,16.87
2018-08-14T03:00:53.537Z,16.88
2018-08-14T03:03:20.732Z,16.82
2018-08-14T03:05:48.158Z,16.80
2018-08-14T03:08:15.394Z,16.77
2018-08-14T03:10:42.706Z,16.73
2018-08-14T03:13:10.006Z,16.73
2018-08-14T03:15:37.410Z,16.70
2018-08-14T03:18:04.905Z,16.58
2018-08-14T03:20:36.612Z,16.40
2018-08-14T03:23:03.920Z,16.27
2018-08-14T03:25:31.207Z,16.15
2018-08-14T03:27:58.460Z,16.08
2018-08-14T03:30:25.810Z,16.08
2018-08-14T03:32:53.141Z,16.05
2018-08-14T03:35:20.521Z,16.01
2018-08-14T03:37:47.919Z,15.97
2018-08-14T03:40:16.954Z,16.00
2018-08-14T03:42:45.347Z,15.98
2018-08-14T03:45:12.574Z,16.06
2018-08-14T03:47:39.956Z,16.12
2018-08-14T03:50:07.815Z,16.17
2018-08-14T03:52:35.127Z,16.14
2018-08-14T03:55:02.578Z,16.16
2018-08-14T03:57:29.867Z,16.10
2018-08-14T03:59:57.165Z,16.16
2018-08-14T04:02:24.520Z,16.16
2018-08-14T04:04:51.814Z,16.14
2018-08-14T04:07:19.200Z,16.06
2018-08-14T04:09:46.499Z,16.08
2018-08-14T04:12:13.756Z,16.00
2018-08-14T04:14:41.051Z,16.03
2018-08-14T04:17:08.357Z,16.08
2018-08-14T04:19:35.649Z,16.09
2018-08-14T04:22:02.971Z,16.14
2018-08-14T04:24:30.249Z,16.12
2018-08-14T04:26:57.500Z,16.07
2018-08-14T04:29:24.830Z,16.04
2018-08-14T04:31:52.072Z,15.95
2018-08-14T04:34:19.346Z,15.86
2018-08-14T04:36:46.719Z,15.87
2018-08-14T04:39:13.977Z,15.85
2018-08-14T04:41:41.349Z,15.89
2018-08-14T04:44:09.014Z,15.93
2018-08-14T04:46:36.410Z,15.94
2018-08-14T04:49:03.676Z,15.95
2018-08-14T04:51:31.052Z,15.98
2018-08-14T04:53:58.353Z,15.94
2018-08-14T04:56:25.620Z,15.87
2018-08-14T04:58:53.542Z,15.82
2018-08-14T05:01:20.857Z,15.81
2018-08-14T05:03:48.107Z,15.80
2018-08-14T05:06:15.463Z,15.81
2018-08-14T05:08:42.712Z,15.83
2018-08-14T05:11:10.006Z,15.91
2018-08-14T05:13:38.686Z,16.00
2018-08-14T05:16:06.164Z,16.11
2018-08-14T05:18:33.451Z,16.13
2018-08-14T05:21:00.754Z,16.19
2018-08-14T05:23:28.016Z,16.25
2018-08-14T05:25:55.337Z,16.30
2018-08-14T05:28:22.654Z,16.38
2018-08-14T05:30:49.898Z,16.53
2018-08-14T05:33:17.319Z,16.59
2018-08-14T05:35:44.586Z,16.69
2018-08-14T05:38:11.970Z,16.67
2018-08-14T05:40:39.343Z,16.88
2018-08-14T05:43:06.747Z,17.02
2018-08-14T05:45:34.042Z,17.14
2018-08-14T05:48:01.388Z,17.21
2018-08-14T05:50:28.721Z,17.31
2018-08-14T05:52:56.053Z,17.49
2018-08-14T05:55:23.309Z,17.61
2018-08-14T05:57:50.685Z,17.66
2018-08-14T06:00:18.649Z,17.73
2018-08-14T06:02:46.110Z,17.79
2018-08-14T06:05:13.461Z,17.98
2018-08-14T06:07:40.813Z,18.09
2018-08-14T06:10:09.079Z,18.28
2018-08-14T06:12:36.839Z,18.27
2018-08-14T06:15:06.336Z,18.44
2018-08-14T06:17:33.707Z,18.57
2018-08-14T06:20:01.063Z,18.67
2018-08-14T06:22:28.297Z,18.57
2018-08-14T06:24:55.610Z,18.43
2018-08-14T06:27:22.951Z,18.35
2018-08-14T06:29:50.274Z,18.17
2018-08-14T06:32:17.593Z,18.35
2018-08-14T06:34:44.959Z,18.62
2018-08-14T06:37:12.268Z,18.95
2018-08-14T06:39:39.493Z,18.87
2018-08-14T06:42:06.934Z,18.67
2018-08-14T06:47:36.716Z,18.57
2018-08-14T06:50:05.226Z,18.70
2018-08-14T06:52:32.487Z,18.80
2018-08-14T06:54:59.689Z,18.64
2018-08-14T06:57:26.964Z,18.76
2018-08-14T06:59:54.189Z,19.07
2018-08-14T07:02:21.496Z,19.31
2018-08-14T07:04:49.083Z,19.49
2018-08-14T07:07:16.405Z,19.57
2018-08-14T07:09:43.937Z,19.59
2018-08-14T07:12:11.279Z,19.72
2018-08-14T07:14:38.597Z,19.96
2018-08-14T07:17:05.898Z,20.31
2018-08-14T07:19:33.161Z,20.53
2018-08-14T07:22:00.635Z,20.83
2018-08-14T07:24:27.895Z,21.13
2018-08-14T07:26:55.232Z,21.31
2018-08-14T07:29:22.471Z,21.28
2018-08-14T07:31:49.750Z,21.55
2018-08-14T07:34:17.007Z,21.77
2018-08-14T07:36:44.380Z,21.91
2018-08-14T07:39:11.653Z,21.76
2018-08-14T07:41:38.916Z,21.54
2018-08-14T07:44:06.139Z,21.62
2018-08-14T07:46:33.934Z,21.61
2018-08-14T07:49:01.316Z,21.37
2018-08-14T07:51:28.615Z,21.44
2018-08-14T07:53:56.249Z,21.72
2018-08-14T07:56:23.461Z,21.51
2018-08-14T07:58:50.687Z,21.65
2018-08-14T08:01:17.931Z,21.85
2018-08-14T08:03:45.232Z,21.66
2018-08-14T08:06:12.473Z,21.65
2018-08-14T08:08:39.803Z,21.62
2018-08-14T08:11:07.168Z,21.99
2018-08-14T08:13:34.459Z,22.22
2018-08-14T08:16:01.732Z,22.13
2018-08-14T08:18:29.030Z,21.96
2018-08-14T08:20:56.225Z,21.98
2018-08-14T08:23:23.576Z,22.06
2018-08-14T08:25:50.937Z,21.72
2018-08-14T08:28:18.206Z,21.53
2018-08-14T08:30:45.537Z,21.85
2018-08-14T08:33:12.804Z,22.16
2018-08-14T08:35:40.158Z,22.33
2018-08-14T08:38:07.489Z,22.44
2018-08-14T08:40:34.764Z,22.47
2018-08-14T08:43:02.455Z,22.18
2018-08-14T08:45:29.753Z,22.02
2018-08-14T08:48:08.403Z,22.11
2018-08-14T08:50:35.685Z,22.05
2018-08-14T08:53:02.991Z,22.57
2018-08-14T08:55:30.294Z,22.82
2018-08-14T08:57:57.571Z,22.54
2018-08-14T09:00:24.959Z,22.10
2018-08-14T09:02:52.184Z,22.20
2018-08-14T09:05:19.460Z,22.43
2018-08-14T09:07:47.022Z,21.97
2018-08-14T09:10:14.232Z,22.29
2018-08-14T09:12:42.153Z,22.53
2018-08-14T09:15:10.103Z,22.65
2018-08-14T09:17:38.306Z,22.54
2018-08-14T09:20:06.727Z,22.42
2018-08-14T09:22:34.175Z,22.77
2018-08-14T09:25:01.385Z,23.25
2018-08-14T09:27:33.887Z,22.90
2018-08-14T09:30:01.207Z,22.74
2018-08-14T09:32:29.576Z,23.06
2018-08-14T09:34:56.969Z,23.75
2018-08-14T09:37:24.560Z,24.45
2018-08-14T09:39:52.626Z,25.03
2018-08-14T09:42:19.968Z,24.84
2018-08-14T09:44:48.153Z,24.09
2018-08-14T09:47:15.460Z,24.27
2018-08-14T09:49:42.732Z,24.50
2018-08-14T09:52:10.229Z,24.45
2018-08-14T09:54:40.384Z,24.36
2018-08-14T09:57:07.881Z,24.30
2018-08-14T09:59:35.208Z,23.79
2018-08-14T10:02:08.024Z,24.11
2018-08-14T10:04:41.027Z,24.03
2018-08-14T10:07:13.833Z,23.69
2018-08-14T10:09:41.124Z,24.00
2018-08-14T10:12:08.436Z,23.84
2018-08-14T10:14:41.224Z,23.55
2018-08-14T10:17:12.250Z,24.02
2018-08-14T10:19:39.645Z,24.55
2018-08-14T10:22:07.425Z,24.64
2018-08-14T10:24:34.772Z,24.12
2018-08-14T10:27:02.021Z,23.91
2018-08-14T10:29:29.356Z,24.63
2018-08-14T10:32:07.406Z,25.21
2018-08-14T10:34:35.364Z,25.45
2018-08-14T10:37:05.284Z,25.26
2018-08-14T10:39:32.615Z,24.86
2018-08-14T10:41:59.885Z,24.79
2018-08-14T10:44:27.183Z,24.75
2018-08-14T10:46:54.506Z,25.39
2018-08-14T10:49:21.808Z,26.01
2018-08-14T10:51:49.133Z,26.36
2018-08-14T10:54:16.558Z,26.24
2018-08-14T10:56:43.887Z,25.41
2018-08-14T10:59:11.179Z,24.68
2018-08-14T11:01:40.024Z,24.64
2018-08-14T11:04:07.273Z,24.60
2018-08-14T11:06:34.520Z,24.71
2018-08-14T11:09:01.942Z,24.17
2018-08-14T11:11:29.745Z,23.60
2018-08-14T11:13:57.368Z,24.28
2018-08-14T11:16:24.984Z,25.29
2018-08-14T11:18:52.483Z,25.71
2018-08-14T11:21:19.976Z,25.49
2018-08-14T11:23:47.235Z,26.07
2018-08-14T11:26:14.508Z,26.80
2018-08-14T11:28:41.859Z,27.14
2018-08-14T11:31:09.090Z,26.10
2018-08-14T11:33:36.451Z,25.88
2018-08-14T11:36:05.223Z,25.76
2018-08-14T11:38:32.795Z,25.18
2018-08-14T11:41:00.123Z,24.87
2018-08-14T11:43:27.469Z,25.07
2018-08-14T11:45:54.774Z,25.17
2018-08-14T11:48:22.036Z,25.64
2018-08-14T11:50:49.320Z,26.15
2018-08-14T11:53:16.596Z,25.90
2018-08-14T11:55:43.888Z,25.91
2018-08-14T11:58:11.174Z,25.45
2018-08-14T12:00:38.464Z,25.13
2018-08-14T12:03:06.756Z,24.84
2018-08-14T12:05:34.151Z,24.49
2018-08-14T12:08:01.350Z,24.03
2018-08-14T12:10:28.648Z,23.87
2018-08-14T12:12:55.983Z,24.85
2018-08-14T12:15:23.298Z,25.58
2018-08-14T12:17:50.559Z,25.03
2018-08-14T12:20:19.283Z,24.51
2018-08-14T12:22:46.582Z,24.41
2018-08-14T12:25:15.221Z,24.64
2018-08-14T12:27:42.615Z,25.54
2018-08-14T12:30:11.697Z,25.40
2018-08-14T12:32:38.977Z,24.88
2018-08-14T12:35:06.595Z,24.86
2018-08-14T12:37:33.906Z,24.87
2018-08-14T12:40:01.210Z,25.00
2018-08-14T12:42:28.482Z,25.06
2018-08-14T12:44:55.829Z,25.02
2018-08-14T12:47:23.870Z,25.33
2018-08-14T12:49:51.307Z,25.72
2018-08-14T12:52:18.600Z,25.57
2018-08-14T12:54:46.381Z,25.27
2018-08-14T12:57:13.649Z,25.05
2018-08-14T12:59:41.189Z,24.84
2018-08-14T13:02:08.497Z,24.62
2018-08-14T13:04:36.167Z,24.51
2018-08-14T13:07:03.523Z,24.55
2018-08-14T13:09:30.841Z,24.52
2018-08-14T13:11:58.076Z,24.42
2018-08-14T13:14:25.326Z,24.55
2018-08-14T13:16:52.670Z,24.52
2018-08-14T13:19:19.973Z,24.65
2018-08-14T13:21:47.224Z,24.65
2018-08-14T13:24:14.518Z,24.36
2018-08-14T13:26:41.880Z,24.45
2018-08-14T13:29:09.181Z,24.48
2018-08-14T13:31:36.487Z,24.82
2018-08-14T13:34:03.895Z,24.98
2018-08-14T13:36:31.172Z,24.91
2018-08-14T13:38:58.497Z,24.77
2018-08-14T13:41:25.750Z,24.74
2018-08-14T13:43:53.166Z,25.22
2018-08-14T13:46:20.450Z,25.29
2018-08-14T13:48:47.725Z,25.20
2018-08-14T13:51:15.070Z,25.04
2018-08-14T13:53:42.405Z,25.24
2018-08-14T13:56:09.633Z,25.48
2018-08-14T13:58:36.975Z,25.48
2018-08-14T14:01:04.255Z,25.45
2018-08-14T14:03:31.548Z,25.45
2018-08-14T14:05:58.853Z,25.57
2018-08-14T14:08:26.130Z,25.47
2018-08-14T14:10:53.493Z,25.40
2018-08-14T14:13:20.856Z,25.30
2018-08-14T14:15:48.080Z,25.14
2018-08-14T14:18:15.317Z,25.09
2018-08-14T14:20:42.573Z,25.15
2018-08-14T14:23:09.920Z,25.16
2018-08-14T14:25:37.239Z,25.01
2018-08-14T14:28:04.821Z,24.88
2018-08-14T14:30:32.170Z,24.75
2018-08-14T14:32:59.450Z,24.56
2018-08-14T14:35:26.930Z,24.44
2018-08-14T14:37:54.259Z,24.28
2018-08-14T14:40:23.497Z,24.19
2018-08-14T14:42:56.213Z,24.00
2018-08-14T14:45:23.545Z,23.94
2018-08-14T14:47:50.870Z,23.82
2018-08-14T14:50:18.150Z,23.67
2018-08-14T14:52:45.607Z,23.47
2018-08-14T14:55:14.722Z,23.48
2018-08-14T14:57:42.371Z,23.45
2018-08-14T15:00:16.098Z,23.24
2018-08-14T15:02:43.778Z,23.24
2018-08-14T15:05:11.139Z,23.05
2018-08-14T15:07:38.563Z,22.94
2018-08-14T15:10:06.141Z,22.80
2018-08-14T15:12:33.406Z,22.65
2018-08-14T15:15:00.676Z,22.51
2018-08-14T15:17:28.009Z,22.44
2018-08-14T15:19:55.324Z,22.52
2018-08-14T15:22:22.590Z,22.49
2018-08-14T15:24:49.857Z,22.51
2018-08-14T15:27:17.193Z,22.40
2018-08-14T15:29:44.476Z,22.39
2018-08-14T15:32:11.788Z,22.38
2018-08-14T15:34:39.043Z,22.56
2018-08-14T15:37:08.415Z,23.22
2018-08-14T15:39:35.663Z,23.92
2018-08-14T15:42:03.055Z,24.64
2018-08-14T15:44:30.347Z,25.41
2018-08-14T15:46:57.670Z,25.41
2018-08-14T15:49:25.035Z,24.96
2018-08-14T15:51:52.422Z,24.63
2018-08-14T15:54:19.765Z,25.01
2018-08-14T15:56:47.847Z,25.52
2018-08-14T15:59:15.330Z,25.64
2018-08-14T16:01:45.555Z,25.32
2018-08-14T16:04:13.600Z,25.50
2018-08-14T16:06:40.905Z,25.67
2018-08-14T16:09:10.552Z,25.40
2018-08-14T16:11:37.901Z,25.28
2018-08-14T16:14:05.191Z,25.62
2018-08-14T16:16:32.499Z,25.69
2018-08-14T16:18:59.758Z,25.26
2018-08-14T16:21:27.045Z,24.64
2018-08-14T16:23:54.302Z,24.28
2018-08-14T16:26:21.800Z,23.97
2018-08-14T16:28:49.149Z,24.05
2018-08-14T16:31:16.405Z,24.26
2018-08-14T16:33:43.666Z,24.01
2018-08-14T16:36:10.968Z,23.98
2018-08-14T16:38:39.225Z,23.94
2018-08-14T16:41:09.641Z,23.78
2018-08-14T16:43:37.920Z,23.74
2018-08-14T16:46:05.864Z,23.67
2018-08-14T16:48:34.276Z,23.67
2018-08-14T16:51:02.341Z,23.59
2018-08-14T16:53:31.936Z,23.50
2018-08-14T16:55:59.690Z,23.44
2018-08-14T16:58:27.618Z,23.32
2018-08-14T17:00:56.528Z,23.25
2018-08-14T17:03:26.998Z,23.25
2018-08-14T17:05:56.093Z,23.24
2018-08-14T17:08:24.129Z,23.14
2018-08-14T17:10:52.074Z,23.08
2018-08-14T17:13:19.987Z,22.98
2018-08-14T17:15:48.685Z,22.92
2018-08-14T17:18:16.905Z,22.69
2018-08-14T17:20:43.735Z,22.61
2018-08-14T17:23:11.805Z,22.56
2018-08-14T17:25:39.989Z,22.53
2018-08-14T17:28:07.665Z,22.57
2018-08-14T17:30:35.555Z,22.51
2018-08-14T17:33:03.335Z,22.52
2018-08-14T17:35:32.155Z,22.52
2018-08-14T17:37:59.779Z,22.56
2018-08-14T17:40:27.213Z,22.54
2018-08-14T17:42:54.827Z,22.65
2018-08-14T17:45:28.132Z,22.78
2018-08-14T17:47:57.089Z,22.88
2018-08-14T17:50:25.257Z,22.95
2018-08-14T17:52:53.000Z,22.88
2018-08-14T17:55:22.739Z,22.76
2018-08-14T17:57:50.526Z,22.69
2018-08-14T18:00:22.436Z,22.65
2018-08-14T18:02:52.914Z,22.66
2018-08-14T18:05:20.355Z,22.61
2018-08-14T18:07:47.813Z,22.60
2018-08-14T18:10:17.207Z,22.51
2018-08-14T18:12:45.026Z,22.33
2018-08-14T18:15:13.619Z,22.22
2018-08-14T18:17:41.550Z,22.24
2018-08-14T18:20:13.288Z,22.18
2018-08-14T18:22:41.148Z,22.10
2018-08-14T18:25:09.717Z,22.07
2018-08-14T18:27:38.155Z,22.00
2018-08-14T18:30:07.373Z,21.96
2018-08-14T18:32:35.785Z,21.85
2018-08-14T18:35:03.945Z,21.84
2018-08-14T18:37:31.368Z,21.82
2018-08-14T18:39:58.699Z,21.81
2018-08-14T18:42:26.120Z,21.76
2018-08-14T18:44:53.316Z,21.84
2018-08-14T18:47:20.677Z,21.80
2018-08-14T18:49:47.971Z,21.82
2018-08-14T18:54:49.042Z,21.74
2018-08-14T18:57:16.372Z,21.62
2018-08-14T18:59:43.624Z,21.57
2018-08-14T19:02:10.972Z,21.57
2018-08-14T19:04:38.346Z,21.47
2018-08-14T19:07:05.609Z,21.42
2018-08-14T19:09:32.886Z,21.41
2018-08-14T19:12:00.112Z,21.38
2018-08-14T19:14:27.394Z,21.37
2018-08-14T19:16:54.677Z,21.35
2018-08-14T19:19:22.018Z,21.22
2018-08-14T19:21:49.363Z,21.11
2018-08-14T19:24:16.760Z,21.04
2018-08-14T19:26:44.134Z,20.93
2018-08-14T19:29:11.391Z,20.95
2018-08-14T19:31:38.937Z,20.84
2018-08-14T19:34:06.156Z,20.72
2018-08-14T19:36:33.489Z,20.72
2018-08-14T19:39:00.948Z,20.58
2018-08-14T19:41:28.297Z,20.57
2018-08-14T19:43:55.614Z,20.62
2018-08-14T19:46:22.884Z,20.58
2018-08-14T19:48:50.189Z,20.50
2018-08-14T19:51:17.468Z,20.50
2018-08-14T19:53:44.792Z,20.49
2018-08-14T19:56:12.132Z,20.48
2018-08-14T19:58:39.469Z,20.49
2018-08-14T20:01:06.789Z,20.42
2018-08-14T20:03:34.965Z,20.35
2018-08-14T20:06:02.279Z,20.28
2018-08-14T20:08:29.587Z,20.15
2018-08-14T20:10:56.900Z,19.97
2018-08-14T20:13:24.186Z,19.90
2018-08-14T20:15:56.950Z,19.77
2018-08-14T20:18:24.270Z,19.75
2018-08-14T20:20:51.579Z,19.78
2018-08-14T20:23:18.898Z,19.69
2018-08-14T20:25:46.233Z,19.69
2018-08-14T20:28:13.610Z,19.75
2018-08-14T20:30:40.918Z,19.74
2018-08-14T20:33:08.220Z,19.76
2018-08-14T20:35:35.491Z,19.71
2018-08-14T20:38:02.815Z,19.60
2018-08-14T20:40:30.160Z,19.57
2018-08-14T20:42:57.392Z,19.51
2018-08-14T20:45:24.695Z,19.45
2018-08-14T20:47:52.042Z,19.36
2018-08-14T20:50:19.644Z,19.25
2018-08-14T20:52:47.403Z,19.23
2018-08-14T20:55:15.166Z,19.10
2018-08-14T20:57:42.912Z,19.05
2018-08-14T21:00:13.385Z,19.05
2018-08-14T21:02:40.675Z,19.07
2018-08-14T21:05:08.033Z,19.04
2018-08-14T21:07:35.429Z,19.01
2018-08-14T21:10:02.746Z,18.97
2018-08-14T21:12:35.590Z,18.89
2018-08-14T21:15:03.329Z,18.84
2018-08-14T21:17:30.685Z,18.82
2018-08-14T21:19:57.913Z,18.73
2018-08-14T21:22:25.211Z,18.68
2018-08-14T21:24:52.590Z,18.63
2018-08-14T21:27:19.880Z,18.51
2018-08-14T21:29:47.156Z,18.44
2018-08-14T21:32:14.476Z,18.49
2018-08-14T21:34:41.942Z,18.46
2018-08-14T21:37:09.400Z,18.33
2018-08-14T21:39:36.659Z,18.33
2018-08-14T21:42:03.945Z,18.41
2018-08-14T21:44:31.247Z,18.29
2018-08-14T21:46:58.582Z,18.26
2018-08-14T21:49:25.815Z,18.25
2018-08-14T21:51:53.211Z,18.16
2018-08-14T21:54:20.528Z,18.13
2018-08-14T21:56:47.760Z,18.16
2018-08-14T21:59:15.160Z,18.21
2018-08-14T22:01:44.133Z,18.23
2018-08-14T22:04:11.536Z,18.24
2018-08-14T22:06:38.896Z,18.17
2018-08-14T22:09:07.035Z,18.12
2018-08-14T22:11:34.361Z,18.06
2018-08-14T22:14:01.741Z,18.05
2018-08-14T22:16:28.998Z,18.01
2018-08-14T22:18:56.387Z,17.93
2018-08-14T22:21:23.766Z,17.92
2018-08-14T22:23:51.025Z,17.84
2018-08-14T22:26:18.358Z,17.81
2018-08-14T22:28:45.685Z,17.81
2018-08-14T22:31:13.018Z,17.75
2018-08-14T22:33:40.256Z,17.72
2018-08-14T22:36:07.553Z,17.74
2018-08-14T22:38:34.835Z,17.76
2018-08-14T22:41:02.124Z,17.69
2018-08-14T22:43:29.418Z,17.69
2018-08-14T22:45:56.656Z,17.71
2018-08-14T22:48:23.979Z,17.69
2018-08-14T22:50:51.242Z,17.66
2018-08-14T22:53:18.576Z,17.66
2018-08-14T22:55:45.797Z,17.71
2018-08-14T22:58:13.082Z,17.71
2018-08-14T23:00:40.402Z,17.73
2018-08-14T23:03:07.760Z,17.77
2018-08-14T23:05:35.038Z,17.82
2018-08-14T23:08:02.300Z,17.82
2018-08-14T23:10:29.656Z,17.82
2018-08-14T23:12:56.876Z,17.92
2018-08-14T23:15:24.123Z,17.89
2018-08-14T23:17:51.383Z,17.90
2018-08-14T23:20:18.660Z,17.85
2018-08-14T23:22:45.964Z,17.83
2018-08-14T23:25:13.435Z,17.65
2018-08-14T23:27:40.679Z,17.58
2018-08-14T23:30:09.921Z,17.62
2018-08-14T23:32:37.387Z,17.60
2018-08-14T23:35:05.119Z,17.55
2018-08-14T23:37:32.428Z,17.58
2018-08-14T23:39:59.718Z,17.48
2018-08-14T23:42:27.038Z,17.46
2018-08-14T23:44:54.377Z,17.33
2018-08-14T23:47:21.631Z,17.33
2018-08-14T23:49:49.012Z,17.33
2018-08-14T23:52:16.354Z,17.32
2018-08-14T23:54:43.641Z,17.31
2018-08-14T23:57:10.934Z,17.33
2018-08-14T23:59:38.256Z,17.32
